DLH867 ENGM-EDDF
Flight info
| Callsign | DLH867 |
|---|---|
| Flight time | 1h 44m |
| Altitude | 37000 |
| Route | VIPPA DCT RAXLU DCT RIMET/N0411F310 T157 KOKEB/N0360F230 T157 KERAX KERAX5A |
| Aircraft | A320/M-SDE2E3FGIJ1LORWXYZ/HB1 |
Departure
| Time | 2026-05-05 14:12 |
|---|---|
| Airport | Oslo-Gardermoen International Airport (ENGM) |
Arrival
| Time | 2026-05-05 15:56 |
|---|---|
| Airport | Frankfurt Main Airport (EDDF) |
| Time | Latitude | Longitude | Altitude | Speed | Heading |
|---|---|---|---|---|---|
| 2026-05-05 13:47 | 60.19638 | 11.10226 | 676 ft | 0 kts | 285° |
| 2026-05-05 14:01 | 60.19635 | 11.10247 | 677 ft | 4 kts | 285° |
| 2026-05-05 14:01 | 60.19628 | 11.10297 | 678 ft | 4 kts | 285° |
| 2026-05-05 14:01 | 60.19623 | 11.10338 | 676 ft | 4 kts | 279° |
| 2026-05-05 14:01 | 60.19622 | 11.10387 | 674 ft | 4 kts | 251° |
| 2026-05-05 14:02 | 60.19635 | 11.10423 | 676 ft | 3 kts | 199° |
| 2026-05-05 14:02 | 60.19638 | 11.10426 | 675 ft | 0 kts | 195° |
| 2026-05-05 14:05 | 60.19631 | 11.10428 | 676 ft | 4 kts | 174° |
| 2026-05-05 14:05 | 60.19603 | 11.10478 | 680 ft | 6 kts | 115° |
| 2026-05-05 14:05 | 60.19585 | 11.10598 | 680 ft | 21 kts | 107° |
| 2026-05-05 14:06 | 60.19540 | 11.10904 | 680 ft | 22 kts | 105° |
| 2026-05-05 14:06 | 60.19499 | 11.11190 | 680 ft | 20 kts | 106° |
| 2026-05-05 14:06 | 60.19423 | 11.11276 | 680 ft | 12 kts | 192° |
| 2026-05-05 14:06 | 60.19308 | 11.11211 | 679 ft | 24 kts | 197° |
| 2026-05-05 14:07 | 60.19143 | 11.11113 | 679 ft | 25 kts | 195° |
| 2026-05-05 14:07 | 60.18969 | 11.11010 | 678 ft | 27 kts | 194° |
| 2026-05-05 14:07 | 60.18785 | 11.10909 | 677 ft | 28 kts | 196° |
| 2026-05-05 14:07 | 60.18594 | 11.10798 | 677 ft | 29 kts | 196° |
| 2026-05-05 14:08 | 60.18405 | 11.10688 | 676 ft | 26 kts | 196° |
| 2026-05-05 14:08 | 60.18226 | 11.10584 | 675 ft | 27 kts | 195° |
| 2026-05-05 14:08 | 60.18049 | 11.10484 | 674 ft | 26 kts | 196° |
| 2026-05-05 14:08 | 60.17872 | 11.10381 | 674 ft | 26 kts | 196° |
| 2026-05-05 14:09 | 60.17713 | 11.10293 | 673 ft | 22 kts | 195° |
| 2026-05-05 14:09 | 60.17640 | 11.10414 | 673 ft | 15 kts | 107° |
| 2026-05-05 14:09 | 60.17618 | 11.10559 | 672 ft | 1 kts | 104° |
| 2026-05-05 14:10 | 60.17618 | 11.10560 | 672 ft | 0 kts | 104° |
| 2026-05-05 14:10 | 60.17612 | 11.10613 | 673 ft | 14 kts | 104° |
| 2026-05-05 14:10 | 60.17621 | 11.10804 | 671 ft | 13 kts | 22° |
| 2026-05-05 14:10 | 60.17633 | 11.10812 | 672 ft | 0 kts | 18° |
| 2026-05-05 14:11 | 60.17697 | 11.10849 | 673 ft | 37 kts | 16° |
| 2026-05-05 14:11 | 60.18193 | 11.11128 | 677 ft | 106 kts | 16° |
| 2026-05-05 14:11 | 60.19086 | 11.11639 | 682 ft | 158 kts | 14° |
| 2026-05-05 14:11 | 60.20191 | 11.12313 | 1207 ft | 165 kts | 18° |
| 2026-05-05 14:12 | 60.21106 | 11.13703 | 1952 ft | 177 kts | 59° |
| 2026-05-05 14:12 | 60.21488 | 11.16199 | 2438 ft | 199 kts | 75° |
| 2026-05-05 14:12 | 60.21735 | 11.19095 | 2779 ft | 222 kts | 79° |
| 2026-05-05 14:12 | 60.21981 | 11.22352 | 3215 ft | 246 kts | 79° |
| 2026-05-05 14:13 | 60.22243 | 11.25766 | 4019 ft | 253 kts | 79° |
| 2026-05-05 14:13 | 60.22235 | 11.29335 | 4904 ft | 260 kts | 106° |
| 2026-05-05 14:13 | 60.21257 | 11.32385 | 5638 ft | 270 kts | 142° |
| 2026-05-05 14:13 | 60.19579 | 11.34206 | 6324 ft | 278 kts | 163° |
| 2026-05-05 14:14 | 60.17689 | 11.35199 | 6848 ft | 280 kts | 178° |
| 2026-05-05 14:14 | 60.15775 | 11.34909 | 6989 ft | 274 kts | 196° |
| 2026-05-05 14:14 | 60.13985 | 11.33762 | 7023 ft | 271 kts | 207° |
| 2026-05-05 14:14 | 60.12321 | 11.32029 | 7020 ft | 269 kts | 213° |
| 2026-05-05 14:15 | 60.10645 | 11.30176 | 7673 ft | 273 kts | 212° |
| 2026-05-05 14:15 | 60.08972 | 11.28372 | 8694 ft | 274 kts | 211° |
| 2026-05-05 14:15 | 60.07308 | 11.26579 | 9630 ft | 276 kts | 212° |
| 2026-05-05 14:15 | 60.05578 | 11.24713 | 10216 ft | 291 kts | 212° |
| 2026-05-05 14:16 | 60.03725 | 11.22700 | 10589 ft | 312 kts | 212° |
| 2026-05-05 14:16 | 60.01786 | 11.20594 | 11263 ft | 319 kts | 212° |
| 2026-05-05 14:16 | 59.99817 | 11.18463 | 12069 ft | 323 kts | 212° |
| 2026-05-05 14:16 | 59.97834 | 11.16393 | 12842 ft | 328 kts | 212° |
| 2026-05-05 14:17 | 59.95760 | 11.14395 | 13657 ft | 332 kts | 211° |
| 2026-05-05 14:17 | 59.93643 | 11.12444 | 14396 ft | 335 kts | 211° |
| 2026-05-05 14:17 | 59.91522 | 11.10514 | 15182 ft | 334 kts | 211° |
| 2026-05-05 14:17 | 59.89399 | 11.08582 | 15945 ft | 334 kts | 212° |
| 2026-05-05 14:18 | 59.87287 | 11.06657 | 16740 ft | 334 kts | 212° |
| 2026-05-05 14:18 | 59.85203 | 11.04751 | 17527 ft | 333 kts | 213° |
| 2026-05-05 14:18 | 59.83093 | 11.02812 | 18299 ft | 333 kts | 213° |
| 2026-05-05 14:18 | 59.80985 | 11.00865 | 18935 ft | 333 kts | 214° |
| 2026-05-05 14:19 | 59.79594 | 10.99577 | 19363 ft | 333 kts | 215° |
| 2026-05-05 14:19 | 59.77486 | 10.97622 | 20013 ft | 334 kts | 215° |
| 2026-05-05 14:19 | 59.74693 | 10.95037 | 20836 ft | 335 kts | 216° |
| 2026-05-05 14:19 | 59.72576 | 10.93082 | 21453 ft | 335 kts | 217° |
| 2026-05-05 14:20 | 59.70454 | 10.91127 | 21954 ft | 338 kts | 217° |
| 2026-05-05 14:20 | 59.69009 | 10.89799 | 22313 ft | 340 kts | 217° |
| 2026-05-05 14:20 | 59.66859 | 10.87829 | 22862 ft | 342 kts | 217° |
| 2026-05-05 14:20 | 59.64693 | 10.85848 | 23398 ft | 344 kts | 217° |
| 2026-05-05 14:21 | 59.62538 | 10.83880 | 23867 ft | 345 kts | 217° |
| 2026-05-05 14:21 | 59.60346 | 10.81872 | 24296 ft | 348 kts | 217° |
| 2026-05-05 14:21 | 59.58136 | 10.79847 | 24705 ft | 350 kts | 217° |
| 2026-05-05 14:21 | 59.55938 | 10.77841 | 25112 ft | 353 kts | 216° |
| 2026-05-05 14:22 | 59.52938 | 10.75119 | 25650 ft | 356 kts | 216° |
| 2026-05-05 14:22 | 59.51441 | 10.73763 | 25911 ft | 358 kts | 216° |
| 2026-05-05 14:22 | 59.49163 | 10.71703 | 26302 ft | 360 kts | 216° |
| 2026-05-05 14:22 | 59.46873 | 10.69627 | 26703 ft | 363 kts | 216° |
| 2026-05-05 14:23 | 59.44597 | 10.67564 | 26987 ft | 365 kts | 215° |
| 2026-05-05 14:23 | 59.42271 | 10.65463 | 27343 ft | 369 kts | 214° |
| 2026-05-05 14:23 | 59.39928 | 10.63354 | 27711 ft | 371 kts | 214° |
| 2026-05-05 14:23 | 59.37562 | 10.61229 | 28075 ft | 374 kts | 214° |
| 2026-05-05 14:24 | 59.35186 | 10.59100 | 28447 ft | 376 kts | 214° |
| 2026-05-05 14:24 | 59.32794 | 10.56957 | 28807 ft | 378 kts | 214° |
| 2026-05-05 14:24 | 59.30423 | 10.54833 | 29239 ft | 380 kts | 213° |
| 2026-05-05 14:24 | 59.27995 | 10.52666 | 29584 ft | 383 kts | 213° |
| 2026-05-05 14:25 | 59.25565 | 10.50502 | 29924 ft | 385 kts | 213° |
| 2026-05-05 14:25 | 59.23119 | 10.48329 | 30220 ft | 387 kts | 213° |
| 2026-05-05 14:25 | 59.20663 | 10.46148 | 30482 ft | 389 kts | 213° |
| 2026-05-05 14:25 | 59.18185 | 10.43941 | 30692 ft | 392 kts | 213° |
| 2026-05-05 14:26 | 59.15725 | 10.41753 | 30955 ft | 394 kts | 213° |
| 2026-05-05 14:26 | 59.13220 | 10.39530 | 31196 ft | 396 kts | 213° |
| 2026-05-05 14:26 | 59.10700 | 10.37302 | 31478 ft | 397 kts | 213° |
| 2026-05-05 14:26 | 59.08175 | 10.35078 | 31822 ft | 397 kts | 212° |
| 2026-05-05 14:27 | 59.05655 | 10.32866 | 32166 ft | 397 kts | 212° |
| 2026-05-05 14:27 | 59.03134 | 10.30653 | 32512 ft | 397 kts | 212° |
| 2026-05-05 14:27 | 59.00647 | 10.28470 | 32841 ft | 397 kts | 212° |
| 2026-05-05 14:27 | 58.98131 | 10.26265 | 33181 ft | 397 kts | 212° |
| 2026-05-05 14:28 | 58.95559 | 10.24237 | 33524 ft | 403 kts | 206° |
| 2026-05-05 14:28 | 58.92777 | 10.23069 | 33854 ft | 416 kts | 195° |
| 2026-05-05 14:28 | 58.89865 | 10.22873 | 34084 ft | 424 kts | 189° |
| 2026-05-05 14:28 | 58.86897 | 10.22924 | 34360 ft | 424 kts | 188° |
| 2026-05-05 14:29 | 58.83937 | 10.22977 | 34623 ft | 425 kts | 188° |
| 2026-05-05 14:29 | 58.80973 | 10.23027 | 34861 ft | 425 kts | 188° |
| 2026-05-05 14:29 | 58.78014 | 10.23068 | 35090 ft | 426 kts | 188° |
| 2026-05-05 14:29 | 58.75080 | 10.23098 | 35322 ft | 426 kts | 188° |
| 2026-05-05 14:30 | 58.72113 | 10.23123 | 35559 ft | 427 kts | 188° |
| 2026-05-05 14:30 | 58.69133 | 10.23151 | 35764 ft | 427 kts | 188° |
| 2026-05-05 14:30 | 58.66152 | 10.23179 | 35984 ft | 428 kts | 188° |
| 2026-05-05 14:30 | 58.63166 | 10.23213 | 36199 ft | 428 kts | 187° |
| 2026-05-05 14:31 | 58.60173 | 10.23248 | 36354 ft | 429 kts | 187° |
| 2026-05-05 14:31 | 58.57220 | 10.23282 | 36556 ft | 430 kts | 187° |
| 2026-05-05 14:31 | 58.54214 | 10.23316 | 36764 ft | 430 kts | 187° |
| 2026-05-05 14:31 | 58.51212 | 10.23356 | 36928 ft | 431 kts | 187° |
| 2026-05-05 14:32 | 58.45275 | 10.23432 | 36955 ft | 428 kts | 187° |
| 2026-05-05 14:32 | 58.39312 | 10.23501 | 36961 ft | 427 kts | 187° |
| 2026-05-05 14:33 | 58.33358 | 10.23585 | 36958 ft | 427 kts | 187° |
| 2026-05-05 14:33 | 58.27453 | 10.23645 | 36964 ft | 427 kts | 187° |
| 2026-05-05 14:34 | 58.21503 | 10.23711 | 36961 ft | 427 kts | 187° |
| 2026-05-05 14:34 | 58.15554 | 10.23776 | 36965 ft | 427 kts | 187° |
| 2026-05-05 14:35 | 58.09618 | 10.23840 | 36965 ft | 427 kts | 187° |
| 2026-05-05 14:35 | 58.03711 | 10.23902 | 36938 ft | 426 kts | 187° |
| 2026-05-05 14:36 | 57.97769 | 10.23967 | 36944 ft | 426 kts | 187° |
| 2026-05-05 14:36 | 57.91827 | 10.24042 | 36953 ft | 426 kts | 187° |
| 2026-05-05 14:37 | 57.85886 | 10.24123 | 36959 ft | 426 kts | 187° |
| 2026-05-05 14:37 | 57.79946 | 10.24193 | 36961 ft | 426 kts | 187° |
| 2026-05-05 14:38 | 57.74044 | 10.24241 | 36964 ft | 428 kts | 186° |
| 2026-05-05 14:38 | 57.68090 | 10.24306 | 36977 ft | 428 kts | 186° |
| 2026-05-05 14:39 | 57.62129 | 10.24366 | 36979 ft | 427 kts | 186° |
| 2026-05-05 14:39 | 57.56176 | 10.24445 | 36979 ft | 427 kts | 186° |
| 2026-05-05 14:40 | 57.50251 | 10.24520 | 36941 ft | 427 kts | 186° |
| 2026-05-05 14:40 | 57.44313 | 10.24578 | 36955 ft | 425 kts | 186° |
| 2026-05-05 14:41 | 57.38427 | 10.24643 | 36959 ft | 424 kts | 186° |
| 2026-05-05 14:41 | 57.32514 | 10.24704 | 36966 ft | 424 kts | 186° |
| 2026-05-05 14:42 | 57.26600 | 10.24782 | 36969 ft | 424 kts | 186° |
| 2026-05-05 14:42 | 57.20726 | 10.24840 | 36937 ft | 424 kts | 186° |
| 2026-05-05 14:43 | 57.14813 | 10.24900 | 36951 ft | 424 kts | 186° |
| 2026-05-05 14:43 | 57.08916 | 10.24961 | 36955 ft | 424 kts | 186° |
| 2026-05-05 14:44 | 57.03041 | 10.25019 | 36959 ft | 424 kts | 186° |
| 2026-05-05 14:44 | 56.97130 | 10.25079 | 36962 ft | 424 kts | 186° |
| 2026-05-05 14:45 | 56.91255 | 10.25139 | 36928 ft | 424 kts | 186° |
| 2026-05-05 14:45 | 56.85335 | 10.25210 | 36943 ft | 424 kts | 186° |
| 2026-05-05 14:46 | 56.79460 | 10.25281 | 36946 ft | 424 kts | 186° |
| 2026-05-05 14:46 | 56.73559 | 10.25342 | 36941 ft | 423 kts | 186° |
| 2026-05-05 14:47 | 56.67642 | 10.25402 | 36919 ft | 424 kts | 186° |
| 2026-05-05 14:47 | 56.61769 | 10.25468 | 36924 ft | 424 kts | 186° |
| 2026-05-05 14:48 | 56.55858 | 10.25523 | 36944 ft | 424 kts | 186° |
| 2026-05-05 14:48 | 56.49979 | 10.25570 | 36950 ft | 424 kts | 186° |
| 2026-05-05 14:49 | 56.44056 | 10.25637 | 36955 ft | 424 kts | 185° |
| 2026-05-05 14:49 | 56.38142 | 10.25711 | 36929 ft | 424 kts | 185° |
| 2026-05-05 14:50 | 56.32224 | 10.25768 | 36935 ft | 425 kts | 185° |
| 2026-05-05 14:50 | 56.26348 | 10.25818 | 36935 ft | 425 kts | 185° |
| 2026-05-05 14:51 | 56.20432 | 10.25882 | 36937 ft | 425 kts | 185° |
| 2026-05-05 14:51 | 56.14518 | 10.25944 | 36909 ft | 425 kts | 185° |
| 2026-05-05 14:52 | 56.08636 | 10.26013 | 36919 ft | 425 kts | 185° |
| 2026-05-05 14:52 | 56.02712 | 10.26077 | 36918 ft | 425 kts | 185° |
| 2026-05-05 14:53 | 55.96777 | 10.26130 | 36942 ft | 426 kts | 185° |
| 2026-05-05 14:53 | 55.90882 | 10.26188 | 36954 ft | 426 kts | 185° |
| 2026-05-05 14:54 | 55.84949 | 10.26247 | 36937 ft | 425 kts | 184° |
| 2026-05-05 14:54 | 55.79018 | 10.26302 | 36948 ft | 425 kts | 184° |
| 2026-05-05 14:55 | 55.73103 | 10.26370 | 36959 ft | 425 kts | 184° |
| 2026-05-05 14:55 | 55.67220 | 10.26432 | 36965 ft | 425 kts | 184° |
| 2026-05-05 14:56 | 55.61296 | 10.26484 | 36962 ft | 425 kts | 184° |
| 2026-05-05 14:56 | 55.55414 | 10.26548 | 36963 ft | 425 kts | 184° |
| 2026-05-05 14:57 | 55.49502 | 10.26612 | 36962 ft | 424 kts | 184° |
| 2026-05-05 14:57 | 55.43587 | 10.26672 | 36968 ft | 425 kts | 184° |
| 2026-05-05 14:58 | 55.37671 | 10.26721 | 36969 ft | 424 kts | 184° |
| 2026-05-05 14:58 | 55.31795 | 10.26770 | 36945 ft | 424 kts | 184° |
| 2026-05-05 14:59 | 55.25885 | 10.26829 | 36955 ft | 424 kts | 184° |
| 2026-05-05 14:59 | 55.19974 | 10.26887 | 36955 ft | 423 kts | 184° |
| 2026-05-05 15:00 | 55.15070 | 10.26934 | 36953 ft | 423 kts | 184° |
| 2026-05-05 15:00 | 55.08220 | 10.26999 | 36939 ft | 423 kts | 184° |
| 2026-05-05 15:01 | 55.02336 | 10.27065 | 36944 ft | 423 kts | 184° |
| 2026-05-05 15:01 | 54.96436 | 10.27119 | 36941 ft | 423 kts | 184° |
| 2026-05-05 15:02 | 54.90573 | 10.27170 | 36949 ft | 423 kts | 184° |
| 2026-05-05 15:02 | 54.84673 | 10.27233 | 36951 ft | 423 kts | 184° |
| 2026-05-05 15:03 | 54.78830 | 10.27297 | 36934 ft | 423 kts | 184° |
| 2026-05-05 15:03 | 54.72943 | 10.27348 | 36940 ft | 422 kts | 184° |
| 2026-05-05 15:04 | 54.67062 | 10.27336 | 36939 ft | 422 kts | 185° |
| 2026-05-05 15:04 | 54.61188 | 10.27215 | 36940 ft | 421 kts | 185° |
| 2026-05-05 15:05 | 54.52423 | 10.27030 | 36934 ft | 421 kts | 185° |
| 2026-05-05 15:06 | 54.47547 | 10.26938 | 36942 ft | 420 kts | 185° |
| 2026-05-05 15:06 | 54.40743 | 10.26827 | 36947 ft | 420 kts | 185° |
| 2026-05-05 15:07 | 54.35836 | 10.26745 | 36949 ft | 420 kts | 185° |
| 2026-05-05 15:07 | 54.30031 | 10.26640 | 36933 ft | 419 kts | 185° |
| 2026-05-05 15:08 | 54.24199 | 10.26553 | 36941 ft | 419 kts | 185° |
| 2026-05-05 15:08 | 54.18359 | 10.26462 | 36935 ft | 418 kts | 185° |
| 2026-05-05 15:09 | 54.12570 | 10.26354 | 36927 ft | 418 kts | 185° |
| 2026-05-05 15:09 | 54.06753 | 10.26251 | 36923 ft | 417 kts | 185° |
| 2026-05-05 15:10 | 54.00936 | 10.26149 | 36919 ft | 417 kts | 186° |
| 2026-05-05 15:10 | 53.95138 | 10.26042 | 36924 ft | 416 kts | 186° |
| 2026-05-05 15:11 | 53.89377 | 10.25954 | 36925 ft | 415 kts | 185° |
| 2026-05-05 15:11 | 53.83583 | 10.25872 | 36924 ft | 415 kts | 186° |
| 2026-05-05 15:12 | 53.77835 | 10.25781 | 36911 ft | 414 kts | 186° |
| 2026-05-05 15:12 | 53.72073 | 10.25677 | 36929 ft | 412 kts | 186° |
| 2026-05-05 15:13 | 53.66330 | 10.25583 | 36933 ft | 411 kts | 186° |
| 2026-05-05 15:13 | 53.60607 | 10.25487 | 36931 ft | 410 kts | 186° |
| 2026-05-05 15:14 | 53.54938 | 10.25389 | 36901 ft | 410 kts | 186° |
| 2026-05-05 15:14 | 53.49213 | 10.25292 | 36901 ft | 410 kts | 185° |
| 2026-05-05 15:15 | 53.43526 | 10.25201 | 36899 ft | 411 kts | 185° |
| 2026-05-05 15:15 | 53.37805 | 10.25109 | 36898 ft | 411 kts | 185° |
| 2026-05-05 15:16 | 53.32072 | 10.25014 | 36902 ft | 411 kts | 185° |
| 2026-05-05 15:16 | 53.26368 | 10.24926 | 36882 ft | 412 kts | 185° |
| 2026-05-05 15:17 | 53.20621 | 10.24831 | 36888 ft | 412 kts | 185° |
| 2026-05-05 15:17 | 53.14873 | 10.24738 | 36879 ft | 413 kts | 185° |
| 2026-05-05 15:18 | 53.09152 | 10.24651 | 36887 ft | 413 kts | 185° |
| 2026-05-05 15:18 | 53.03383 | 10.24556 | 36895 ft | 414 kts | 185° |
| 2026-05-05 15:19 | 52.97639 | 10.24472 | 36906 ft | 414 kts | 185° |
| 2026-05-05 15:19 | 52.91865 | 10.24382 | 36909 ft | 414 kts | 185° |
| 2026-05-05 15:20 | 52.86124 | 10.24288 | 36910 ft | 414 kts | 185° |
| 2026-05-05 15:20 | 52.80343 | 10.24183 | 36896 ft | 414 kts | 185° |
| 2026-05-05 15:21 | 52.74615 | 10.24098 | 36911 ft | 413 kts | 185° |
| 2026-05-05 15:21 | 52.68849 | 10.24007 | 36893 ft | 413 kts | 185° |
| 2026-05-05 15:22 | 52.63124 | 10.23921 | 36893 ft | 413 kts | 185° |
| 2026-05-05 15:22 | 52.57379 | 10.23841 | 36893 ft | 412 kts | 185° |
| 2026-05-05 15:23 | 52.51635 | 10.23749 | 36896 ft | 411 kts | 185° |
| 2026-05-05 15:23 | 52.45953 | 10.23650 | 36904 ft | 410 kts | 185° |
| 2026-05-05 15:24 | 52.40228 | 10.23562 | 36901 ft | 409 kts | 185° |
| 2026-05-05 15:24 | 52.34559 | 10.23482 | 36899 ft | 409 kts | 185° |
| 2026-05-05 15:25 | 52.28860 | 10.23396 | 36888 ft | 408 kts | 185° |
| 2026-05-05 15:25 | 52.23220 | 10.23296 | 36896 ft | 407 kts | 185° |
| 2026-05-05 15:26 | 52.17557 | 10.23205 | 36894 ft | 406 kts | 185° |
| 2026-05-05 15:26 | 52.11902 | 10.23115 | 36888 ft | 405 kts | 185° |
| 2026-05-05 15:27 | 52.06287 | 10.23043 | 36879 ft | 405 kts | 185° |
| 2026-05-05 15:27 | 52.00644 | 10.22955 | 36881 ft | 404 kts | 185° |
| 2026-05-05 15:28 | 51.95024 | 10.22858 | 36881 ft | 403 kts | 185° |
| 2026-05-05 15:28 | 51.89416 | 10.22780 | 36876 ft | 403 kts | 185° |
| 2026-05-05 15:29 | 51.83812 | 10.22708 | 36847 ft | 402 kts | 185° |
| 2026-05-05 15:29 | 51.78253 | 10.22628 | 36861 ft | 401 kts | 184° |
| 2026-05-05 15:30 | 51.72661 | 10.22539 | 36846 ft | 401 kts | 184° |
| 2026-05-05 15:30 | 51.67098 | 10.22438 | 36852 ft | 400 kts | 185° |
| 2026-05-05 15:31 | 51.61504 | 10.22355 | 36847 ft | 400 kts | 184° |
| 2026-05-05 15:31 | 51.55956 | 10.22278 | 36836 ft | 400 kts | 184° |
| 2026-05-05 15:32 | 51.50373 | 10.22189 | 36823 ft | 401 kts | 184° |
| 2026-05-05 15:32 | 51.44783 | 10.22102 | 36817 ft | 401 kts | 184° |
| 2026-05-05 15:33 | 51.39216 | 10.22020 | 36835 ft | 402 kts | 184° |
| 2026-05-05 15:33 | 51.36407 | 10.21980 | 36277 ft | 405 kts | 184° |
| 2026-05-05 15:33 | 51.33541 | 10.21936 | 35101 ft | 417 kts | 183° |
| 2026-05-05 15:33 | 51.30632 | 10.21887 | 34444 ft | 416 kts | 183° |
| 2026-05-05 15:34 | 51.27749 | 10.21834 | 33895 ft | 413 kts | 183° |
| 2026-05-05 15:34 | 51.24882 | 10.21780 | 33314 ft | 409 kts | 183° |
| 2026-05-05 15:34 | 51.22053 | 10.21727 | 32693 ft | 405 kts | 183° |
| 2026-05-05 15:34 | 51.19245 | 10.21669 | 32101 ft | 402 kts | 183° |
| 2026-05-05 15:35 | 51.16462 | 10.21606 | 31522 ft | 398 kts | 183° |
| 2026-05-05 15:35 | 51.13698 | 10.21544 | 30966 ft | 395 kts | 183° |
| 2026-05-05 15:35 | 51.10959 | 10.21489 | 30418 ft | 392 kts | 182° |
| 2026-05-05 15:35 | 51.08239 | 10.21439 | 29894 ft | 389 kts | 182° |
| 2026-05-05 15:36 | 51.05543 | 10.21392 | 29278 ft | 386 kts | 182° |
| 2026-05-05 15:36 | 51.02903 | 10.21346 | 28683 ft | 383 kts | 182° |
| 2026-05-05 15:36 | 51.00249 | 10.21301 | 28097 ft | 380 kts | 182° |
| 2026-05-05 15:36 | 50.97616 | 10.21258 | 27516 ft | 377 kts | 182° |
| 2026-05-05 15:37 | 50.95000 | 10.21215 | 26944 ft | 374 kts | 182° |
| 2026-05-05 15:37 | 50.92401 | 10.21169 | 26384 ft | 372 kts | 182° |
| 2026-05-05 15:37 | 50.89819 | 10.21122 | 25839 ft | 369 kts | 182° |
| 2026-05-05 15:37 | 50.87253 | 10.21075 | 25285 ft | 367 kts | 181° |
| 2026-05-05 15:38 | 50.84701 | 10.21017 | 24751 ft | 365 kts | 183° |
| 2026-05-05 15:38 | 50.82213 | 10.20329 | 24231 ft | 362 kts | 199° |
| 2026-05-05 15:38 | 50.79952 | 10.18527 | 23316 ft | 371 kts | 216° |
| 2026-05-05 15:38 | 50.78114 | 10.15574 | 22206 ft | 385 kts | 234° |
| 2026-05-05 15:39 | 50.76850 | 10.11785 | 21685 ft | 395 kts | 242° |
| 2026-05-05 15:39 | 50.75649 | 10.07925 | 21168 ft | 396 kts | 242° |
| 2026-05-05 15:39 | 50.74412 | 10.04054 | 20641 ft | 393 kts | 241° |
| 2026-05-05 15:39 | 50.73171 | 10.00226 | 20111 ft | 390 kts | 241° |
| 2026-05-05 15:40 | 50.71928 | 9.96412 | 19590 ft | 387 kts | 241° |
| 2026-05-05 15:40 | 50.70697 | 9.92621 | 19075 ft | 385 kts | 241° |
| 2026-05-05 15:40 | 50.69500 | 9.88922 | 18577 ft | 382 kts | 241° |
| 2026-05-05 15:40 | 50.68302 | 9.85196 | 18068 ft | 379 kts | 242° |
| 2026-05-05 15:41 | 50.67114 | 9.81489 | 17528 ft | 378 kts | 242° |
| 2026-05-05 15:41 | 50.65927 | 9.77800 | 17017 ft | 376 kts | 241° |
| 2026-05-05 15:41 | 50.64740 | 9.74126 | 16547 ft | 374 kts | 241° |
| 2026-05-05 15:41 | 50.63509 | 9.70531 | 16083 ft | 371 kts | 234° |
| 2026-05-05 15:42 | 50.61827 | 9.67502 | 15804 ft | 368 kts | 223° |
| 2026-05-05 15:42 | 50.60005 | 9.64680 | 15552 ft | 367 kts | 223° |
| 2026-05-05 15:42 | 50.58184 | 9.61863 | 15303 ft | 366 kts | 223° |
| 2026-05-05 15:42 | 50.56359 | 9.59051 | 15058 ft | 365 kts | 223° |
| 2026-05-05 15:43 | 50.54544 | 9.56271 | 14815 ft | 364 kts | 223° |
| 2026-05-05 15:43 | 50.52725 | 9.53497 | 14577 ft | 363 kts | 223° |
| 2026-05-05 15:43 | 50.50910 | 9.50733 | 14329 ft | 361 kts | 223° |
| 2026-05-05 15:43 | 50.49136 | 9.48031 | 13851 ft | 358 kts | 223° |
| 2026-05-05 15:44 | 50.47348 | 9.45310 | 13319 ft | 357 kts | 223° |
| 2026-05-05 15:44 | 50.45582 | 9.42628 | 12991 ft | 347 kts | 223° |
| 2026-05-05 15:44 | 50.43899 | 9.40070 | 12836 ft | 326 kts | 223° |
| 2026-05-05 15:44 | 50.42319 | 9.37676 | 12695 ft | 305 kts | 222° |
| 2026-05-05 15:45 | 50.40823 | 9.35407 | 12245 ft | 295 kts | 222° |
| 2026-05-05 15:45 | 50.39358 | 9.33193 | 11639 ft | 290 kts | 222° |
| 2026-05-05 15:45 | 50.37908 | 9.31022 | 11029 ft | 287 kts | 222° |
| 2026-05-05 15:45 | 50.36464 | 9.28854 | 10516 ft | 287 kts | 222° |
| 2026-05-05 15:46 | 50.35052 | 9.26722 | 10191 ft | 284 kts | 222° |
| 2026-05-05 15:46 | 50.33626 | 9.24567 | 9852 ft | 282 kts | 223° |
| 2026-05-05 15:46 | 50.32211 | 9.22430 | 9474 ft | 282 kts | 223° |
| 2026-05-05 15:46 | 50.30805 | 9.20306 | 9085 ft | 280 kts | 223° |
| 2026-05-05 15:47 | 50.29403 | 9.18191 | 8700 ft | 279 kts | 223° |
| 2026-05-05 15:47 | 50.28476 | 9.16796 | 8443 ft | 278 kts | 223° |
| 2026-05-05 15:47 | 50.26625 | 9.14010 | 8001 ft | 273 kts | 223° |
| 2026-05-05 15:47 | 50.25264 | 9.11962 | 7670 ft | 270 kts | 223° |
| 2026-05-05 15:48 | 50.23913 | 9.09936 | 7301 ft | 267 kts | 223° |
| 2026-05-05 15:48 | 50.22576 | 9.07942 | 6674 ft | 264 kts | 223° |
| 2026-05-05 15:48 | 50.21253 | 9.05972 | 6042 ft | 262 kts | 223° |
| 2026-05-05 15:48 | 50.19983 | 9.04076 | 5778 ft | 245 kts | 223° |
| 2026-05-05 15:49 | 50.18792 | 9.02291 | 5515 ft | 234 kts | 223° |
| 2026-05-05 15:49 | 50.17635 | 9.00559 | 5282 ft | 228 kts | 223° |
| 2026-05-05 15:49 | 50.16491 | 8.98848 | 5013 ft | 226 kts | 223° |
| 2026-05-05 15:49 | 50.15360 | 8.97159 | 4992 ft | 225 kts | 224° |
| 2026-05-05 15:50 | 50.14707 | 8.95891 | 4992 ft | 228 kts | 239° |
| 2026-05-05 15:50 | 50.13912 | 8.92843 | 5000 ft | 230 kts | 248° |
| 2026-05-05 15:50 | 50.13383 | 8.90556 | 4995 ft | 217 kts | 248° |
| 2026-05-05 15:50 | 50.13044 | 8.89106 | 4997 ft | 212 kts | 248° |
| 2026-05-05 15:51 | 50.12546 | 8.86984 | 4992 ft | 204 kts | 248° |
| 2026-05-05 15:51 | 50.12062 | 8.84926 | 4833 ft | 200 kts | 248° |
| 2026-05-05 15:51 | 50.11582 | 8.82890 | 4577 ft | 199 kts | 249° |
| 2026-05-05 15:51 | 50.11102 | 8.80856 | 4296 ft | 201 kts | 248° |
| 2026-05-05 15:52 | 50.10617 | 8.78798 | 4011 ft | 202 kts | 249° |
| 2026-05-05 15:52 | 50.10139 | 8.76775 | 3724 ft | 200 kts | 248° |
| 2026-05-05 15:52 | 50.09672 | 8.74794 | 3471 ft | 190 kts | 248° |
| 2026-05-05 15:52 | 50.09222 | 8.72895 | 3189 ft | 184 kts | 248° |
| 2026-05-05 15:53 | 50.08789 | 8.71065 | 2928 ft | 175 kts | 249° |
| 2026-05-05 15:53 | 50.08370 | 8.69296 | 2696 ft | 169 kts | 249° |
| 2026-05-05 15:53 | 50.07971 | 8.67614 | 2451 ft | 162 kts | 249° |
| 2026-05-05 15:53 | 50.07592 | 8.66019 | 2228 ft | 156 kts | 249° |
| 2026-05-05 15:54 | 50.07220 | 8.64451 | 2000 ft | 150 kts | 249° |
| 2026-05-05 15:54 | 50.06869 | 8.62974 | 1786 ft | 142 kts | 248° |
| 2026-05-05 15:54 | 50.06531 | 8.61554 | 1592 ft | 139 kts | 248° |
| 2026-05-05 15:54 | 50.06195 | 8.60144 | 1391 ft | 140 kts | 249° |
| 2026-05-05 15:55 | 50.05858 | 8.58729 | 1181 ft | 138 kts | 250° |
| 2026-05-05 15:55 | 50.05526 | 8.57334 | 993 ft | 138 kts | 249° |
| 2026-05-05 15:55 | 50.05193 | 8.55926 | 747 ft | 142 kts | 248° |
| 2026-05-05 15:55 | 50.04848 | 8.54516 | 569 ft | 140 kts | 249° |
| 2026-05-05 15:56 | 50.04519 | 8.53096 | 379 ft | 137 kts | 250° |
| 2026-05-05 15:56 | 50.04215 | 8.51835 | 335 ft | 101 kts | 249° |
| 2026-05-05 15:56 | 50.04050 | 8.51170 | 328 ft | 32 kts | 243° |
| 2026-05-05 15:56 | 50.03918 | 8.50932 | 326 ft | 27 kts | 220° |
| 2026-05-05 15:57 | 50.03796 | 8.50847 | 330 ft | 13 kts | 142° |
| 2026-05-05 15:57 | 50.03782 | 8.50884 | 331 ft | 0 kts | 105° |
| 2026-05-05 15:58 | 50.03787 | 8.50948 | 335 ft | 15 kts | 70° |
| 2026-05-05 15:58 | 50.03845 | 8.51192 | 333 ft | 28 kts | 69° |
| 2026-05-05 15:58 | 50.03914 | 8.51477 | 332 ft | 29 kts | 70° |
| 2026-05-05 15:59 | 50.03986 | 8.51777 | 336 ft | 29 kts | 70° |
| 2026-05-05 15:59 | 50.04047 | 8.52032 | 338 ft | 25 kts | 70° |
| 2026-05-05 15:59 | 50.04106 | 8.52284 | 352 ft | 25 kts | 70° |
| 2026-05-05 15:59 | 50.04164 | 8.52529 | 350 ft | 23 kts | 70° |
| 2026-05-05 16:00 | 50.04219 | 8.52758 | 357 ft | 21 kts | 69° |
| 2026-05-05 16:00 | 50.04271 | 8.52978 | 362 ft | 25 kts | 70° |
| 2026-05-05 16:00 | 50.04338 | 8.53240 | 363 ft | 26 kts | 68° |
| 2026-05-05 16:00 | 50.04393 | 8.53502 | 375 ft | 26 kts | 80° |
| 2026-05-05 16:01 | 50.04414 | 8.53811 | 375 ft | 29 kts | 84° |
| 2026-05-05 16:01 | 50.04435 | 8.54117 | 375 ft | 28 kts | 84° |
| 2026-05-05 16:01 | 50.04454 | 8.54421 | 371 ft | 29 kts | 89° |
| 2026-05-05 16:01 | 50.04375 | 8.54706 | 361 ft | 29 kts | 136° |
| 2026-05-05 16:02 | 50.04198 | 8.54837 | 355 ft | 26 kts | 160° |
| 2026-05-05 16:02 | 50.04093 | 8.54897 | 357 ft | 9 kts | 160° |
| 2026-05-05 16:02 | 50.04078 | 8.54905 | 351 ft | 5 kts | 160° |
| 2026-05-05 16:02 | 50.04030 | 8.54938 | 356 ft | 5 kts | 146° |
| 2026-05-05 16:03 | 50.04015 | 8.55004 | 355 ft | 13 kts | 84° |
| 2026-05-05 16:03 | 50.04066 | 8.55216 | 354 ft | 27 kts | 69° |
| 2026-05-05 16:03 | 50.04130 | 8.55487 | 354 ft | 26 kts | 70° |
| 2026-05-05 16:03 | 50.04193 | 8.55746 | 354 ft | 24 kts | 69° |
| 2026-05-05 16:04 | 50.04242 | 8.55953 | 362 ft | 16 kts | 70° |
| 2026-05-05 16:04 | 50.04296 | 8.56070 | 360 ft | 13 kts | 14° |
| 2026-05-05 16:04 | 50.04409 | 8.56034 | 358 ft | 16 kts | 12° |
| 2026-05-05 16:04 | 50.04459 | 8.56149 | 361 ft | 11 kts | 70° |
| 2026-05-05 16:05 | 50.04487 | 8.56225 | 362 ft | 3 kts | 18° |
| 2026-05-05 16:05 | 50.04520 | 8.56208 | 359 ft | 8 kts | 343° |
| 2026-05-05 16:05 | 50.04535 | 8.56217 | 360 ft | 2 kts | 37° |
| 2026-05-05 16:05 | 50.04539 | 8.56223 | 360 ft | 0 kts | 37° |